GMFO/OUD METAR and TAF weather

Enter ICAO airport designator
Station Type Date Time Source
GMFO METAR 2020/11/25 21:30 UTC NOAA

GMFO 252130Z 18018KT 9999 FEW083 BKN130 18/M02 Q1013 NOSIG


Station Type Date Time Source
GMFO Decoded METAR 2020/11/25 21:30 UTC NOAA

Oujda, Morocco (GMFO) 34-47N 001-56W 470M
Nov 25, 2020 - 04:30 PM EST / 2020.11.25 2130 UTC
Wind: from the S (180 degrees) at 21 MPH (18 KT):0
Visibility: greater than 7 mile(s):0
Sky conditions: mostly cloudy
Temperature: 64 F (18 C)
Dew Point: 28 F (-2 C)
Relative Humidity: 25%
Pressure (altimeter): 29.91 in. Hg (1013 hPa)
ob: GMFO 252130Z 18018KT 9999 FEW083 BKN130 18/M02 Q1013 NOSIG
cycle: 21

Station Type Date Time Source
GMFO TAF 2020/11/25 18:18 UTC NOAA

TAF TAF GMFO 251700Z 2518/2624 19012KT 9999 FEW040 BKN120 PROB30
TEMPO 2602/2615 18018G40KT 9999 FEW026 BKN100 PROB30
TEMPO 2617/2624 TSRA SCT020 FEW033CB BKN100

Example: see airport list